createdAt,value
2018-09-07T00:00:25.617Z,10.70
2018-09-07T00:02:53.858Z,10.70
2018-09-07T00:05:22.179Z,10.70
2018-09-07T00:07:50.397Z,10.28
2018-09-07T00:10:18.621Z,11.00
2018-09-07T00:12:46.842Z,10.20
2018-09-07T00:15:15.104Z,10.38
2018-09-07T00:17:43.349Z,11.12
2018-09-07T00:20:11.689Z,10.48
2018-09-07T00:22:40.058Z,11.25
2018-09-07T00:25:08.269Z,10.55
2018-09-07T00:27:36.613Z,11.63
2018-09-07T00:30:05.134Z,11.95
2018-09-07T00:32:33.418Z,11.90
2018-09-07T00:35:01.649Z,12.80
2018-09-07T00:37:29.870Z,13.10
2018-09-07T00:39:58.165Z,12.80
2018-09-07T00:42:26.434Z,13.00
2018-09-07T00:44:54.663Z,12.70
2018-09-07T00:47:29.550Z,11.57
2018-09-07T00:49:57.776Z,11.70
2018-09-07T00:52:26.450Z,11.57
2018-09-07T00:54:55.663Z,12.78
2018-09-07T00:57:23.926Z,12.00
2018-09-07T00:59:52.140Z,12.33
2018-09-07T01:02:20.347Z,12.07
2018-09-07T01:04:48.602Z,12.30
2018-09-07T01:07:16.865Z,12.45
2018-09-07T01:09:45.125Z,12.90
2018-09-07T01:12:13.385Z,13.15
2018-09-07T01:14:41.616Z,12.58
2018-09-07T01:17:09.866Z,12.20
2018-09-07T01:19:38.097Z,12.03
2018-09-07T01:22:06.335Z,12.85
2018-09-07T01:24:34.600Z,11.80
2018-09-07T01:27:02.890Z,12.73
2018-09-07T01:29:31.115Z,13.30
2018-09-07T01:31:59.435Z,12.93
2018-09-07T01:34:33.621Z,14.25
2018-09-07T01:37:07.121Z,14.13
2018-09-07T01:39:35.316Z,14.15
2018-09-07T01:42:03.589Z,14.40
2018-09-07T01:44:32.283Z,15.18
2018-09-07T01:47:00.813Z,14.40
2018-09-07T01:49:29.052Z,14.83
2018-09-07T01:51:57.291Z,14.95
2018-09-07T01:54:25.594Z,15.08
2018-09-07T01:56:53.814Z,16.20
2018-09-07T01:59:22.037Z,16.00
2018-09-07T02:01:50.298Z,18.10
2018-09-07T02:04:18.505Z,17.42
2018-09-07T02:06:46.834Z,17.05
2018-09-07T02:09:15.034Z,17.98
2018-09-07T02:11:43.304Z,17.05
2018-09-07T02:14:11.525Z,18.40
2018-09-07T02:16:39.742Z,18.32
2018-09-07T02:19:08.095Z,19.40
2018-09-07T02:21:36.333Z,20.65
2018-09-07T02:24:04.589Z,20.05
2018-09-07T02:26:32.889Z,21.65
2018-09-07T02:29:01.120Z,22.87
2018-09-07T02:31:29.345Z,22.80
2018-09-07T02:33:57.610Z,24.55
2018-09-07T02:36:25.832Z,23.02
2018-09-07T02:38:54.041Z,23.40
2018-09-07T02:41:22.423Z,25.82
2018-09-07T02:43:50.651Z,24.32
2018-09-07T02:46:18.910Z,23.73
2018-09-07T02:48:47.470Z,24.85
2018-09-07T02:51:15.696Z,28.32
2018-09-07T02:53:43.994Z,25.97
2018-09-07T02:56:12.313Z,27.98
2018-09-07T02:58:40.528Z,28.75
2018-09-07T03:01:08.765Z,28.07
2018-09-07T03:03:37.045Z,27.17
2018-09-07T03:06:05.353Z,29.50
2018-09-07T03:08:33.611Z,29.67
2018-09-07T03:11:01.853Z,30.85
2018-09-07T03:13:30.130Z,30.60
2018-09-07T03:15:58.358Z,31.27
2018-09-07T03:18:26.620Z,31.07
2018-09-07T03:20:54.873Z,34.38
2018-09-07T03:23:23.147Z,31.70
2018-09-07T03:25:51.374Z,35.58
2018-09-07T03:28:19.625Z,35.23
2018-09-07T03:30:47.846Z,34.85
2018-09-07T03:33:16.106Z,35.23
2018-09-07T03:35:44.357Z,36.90
2018-09-07T03:38:12.630Z,37.42
2018-09-07T03:40:40.841Z,39.20
2018-09-07T03:43:09.110Z,36.00
2018-09-07T03:45:37.373Z,37.00
2018-09-07T03:48:05.970Z,38.90
2018-09-07T03:50:34.373Z,39.80
2018-09-07T03:53:02.653Z,40.05
2018-09-07T03:55:30.922Z,40.88
2018-09-07T03:57:59.127Z,35.65
2018-09-07T04:00:27.462Z,32.93
2018-09-07T04:02:55.710Z,27.95
2018-09-07T04:05:23.983Z,24.65
2018-09-07T04:07:52.321Z,21.25
2018-09-07T04:10:20.558Z,20.05
2018-09-07T04:12:48.845Z,17.65
2018-09-07T04:15:17.066Z,16.60
2018-09-07T04:17:45.333Z,15.45
2018-09-07T04:20:13.624Z,13.58
2018-09-07T04:22:41.833Z,13.28
2018-09-07T04:25:10.041Z,12.95
2018-09-07T04:27:38.284Z,11.40
2018-09-07T04:30:06.905Z,11.88
2018-09-07T04:32:35.525Z,12.50
2018-09-07T04:35:03.819Z,12.58
2018-09-07T04:37:32.030Z,12.30
2018-09-07T04:40:00.297Z,12.88
2018-09-07T04:42:28.570Z,12.80
2018-09-07T04:44:56.790Z,13.32
2018-09-07T04:47:25.050Z,13.93
2018-09-07T04:49:53.301Z,14.40
2018-09-07T04:52:21.506Z,13.65
2018-09-07T04:54:49.751Z,13.95
2018-09-07T04:57:18.069Z,15.28
2018-09-07T04:59:46.318Z,14.65
2018-09-07T05:02:14.634Z,16.97
2018-09-07T05:04:42.917Z,15.95
2018-09-07T05:07:11.217Z,16.12
2018-09-07T05:09:39.485Z,17.17
2018-09-07T05:12:07.706Z,18.00
2018-09-07T05:14:35.981Z,16.05
2018-09-07T05:17:04.268Z,16.30
2018-09-07T05:19:32.536Z,16.30
2018-09-07T05:22:00.783Z,15.93
2018-09-07T05:24:28.982Z,15.50
2018-09-07T05:26:57.239Z,15.95
2018-09-07T05:29:25.539Z,16.42
2018-09-07T05:31:53.908Z,15.08
2018-09-07T05:34:22.222Z,14.55
2018-09-07T05:36:50.469Z,14.15
2018-09-07T05:39:18.686Z,13.88
2018-09-07T05:41:46.915Z,13.55
2018-09-07T05:44:15.269Z,13.85
2018-09-07T05:46:43.464Z,13.10
2018-09-07T05:49:11.666Z,14.28
2018-09-07T05:51:40.962Z,13.68
2018-09-07T05:54:09.182Z,13.50
2018-09-07T05:56:37.393Z,12.60
2018-09-07T05:59:05.662Z,13.58
2018-09-07T06:01:33.912Z,10.50
2018-09-07T06:04:02.181Z,11.45
2018-09-07T06:06:30.389Z,10.68
2018-09-07T06:08:58.621Z,10.35
2018-09-07T06:11:26.838Z,10.25
2018-09-07T06:13:55.131Z,9.35
2018-09-07T06:16:23.376Z,9.40
2018-09-07T06:18:51.953Z,9.25
2018-09-07T06:21:20.633Z,9.18
2018-09-07T06:23:48.877Z,8.85
2018-09-07T06:26:17.089Z,8.75
2018-09-07T06:28:45.329Z,8.45
2018-09-07T06:31:13.639Z,8.15
2018-09-07T06:33:41.957Z,7.15
2018-09-07T06:36:10.172Z,6.65
2018-09-07T06:38:38.429Z,6.47
2018-09-07T06:41:06.633Z,7.75
2018-09-07T06:43:34.838Z,7.35
2018-09-07T06:46:03.520Z,7.80
2018-09-07T06:48:31.733Z,7.20
2018-09-07T06:50:59.937Z,6.90
2018-09-07T06:53:28.169Z,7.25
2018-09-07T06:55:56.409Z,7.67
2018-09-07T06:58:24.630Z,7.20
2018-09-07T07:00:53.226Z,7.47
2018-09-07T07:03:21.545Z,6.90
2018-09-07T07:05:49.806Z,6.35
2018-09-07T07:08:18.102Z,5.80
2018-09-07T07:10:46.333Z,5.50
2018-09-07T07:13:14.625Z,5.60
2018-09-07T07:15:42.836Z,6.33
2018-09-07T07:18:11.138Z,6.35
2018-09-07T07:20:39.338Z,7.45
2018-09-07T07:23:07.657Z,4.72
2018-09-07T07:25:35.834Z,5.33
2018-09-07T07:28:04.077Z,4.60
2018-09-07T07:30:32.337Z,5.30
2018-09-07T07:33:01.433Z,5.15
2018-09-07T07:35:29.661Z,3.90
2018-09-07T07:37:57.881Z,4.03
2018-09-07T07:40:26.122Z,3.87
2018-09-07T07:42:54.345Z,3.37
2018-09-07T07:45:22.574Z,3.40
2018-09-07T07:47:50.817Z,3.17
2018-09-07T07:50:19.059Z,3.20
2018-09-07T07:52:47.298Z,3.67
2018-09-07T07:55:15.535Z,3.80
2018-09-07T07:57:43.803Z,3.50
2018-09-07T08:00:12.069Z,3.50
2018-09-07T08:02:40.309Z,3.50
2018-09-07T08:05:08.526Z,4.65
2018-09-07T08:07:36.765Z,4.10
2018-09-07T08:10:04.981Z,3.77
2018-09-07T08:12:33.292Z,4.05
2018-09-07T08:15:01.482Z,3.50
2018-09-07T08:17:29.718Z,4.00
2018-09-07T08:19:57.904Z,4.00
2018-09-07T08:22:26.213Z,3.60
2018-09-07T08:24:54.445Z,3.40
2018-09-07T08:27:22.725Z,2.43
2018-09-07T08:29:50.937Z,2.60
2018-09-07T08:32:19.165Z,2.73
2018-09-07T08:34:47.381Z,2.03
2018-09-07T08:37:15.628Z,1.90
2018-09-07T08:39:43.937Z,1.40
2018-09-07T08:42:12.145Z,1.53
2018-09-07T08:44:40.426Z,1.23
2018-09-07T08:47:08.707Z,1.40
2018-09-07T08:49:36.945Z,1.50
2018-09-07T08:52:05.257Z,2.33
2018-09-07T08:54:33.590Z,1.60
2018-09-07T08:57:01.781Z,1.20
2018-09-07T08:59:30.081Z,1.13
2018-09-07T09:01:58.262Z,1.40
2018-09-07T09:04:26.538Z,1.77
2018-09-07T09:06:54.790Z,1.30
2018-09-07T09:09:23.094Z,1.20
2018-09-07T09:11:51.317Z,1.17
2018-09-07T09:14:19.565Z,1.07
2018-09-07T09:16:47.841Z,1.37
2018-09-07T09:19:16.100Z,1.00
2018-09-07T09:21:44.473Z,0.77
2018-09-07T09:24:12.720Z,0.90
2018-09-07T09:26:41.002Z,0.90
2018-09-07T09:29:09.219Z,0.63
2018-09-07T09:31:37.429Z,0.70
2018-09-07T09:34:05.738Z,0.90
2018-09-07T09:36:34.074Z,0.87
2018-09-07T09:39:02.327Z,0.80
2018-09-07T09:41:30.542Z,1.00
2018-09-07T09:43:58.738Z,0.80
2018-09-07T09:46:26.929Z,0.77
2018-09-07T09:48:55.165Z,0.70
2018-09-07T09:51:23.463Z,0.80
2018-09-07T09:53:51.662Z,0.70
2018-09-07T09:56:19.893Z,0.83
2018-09-07T09:58:48.216Z,0.57
2018-09-07T10:01:21.943Z,0.50
2018-09-07T10:03:55.667Z,0.70
2018-09-07T10:06:23.907Z,0.80
2018-09-07T10:08:52.126Z,0.70
2018-09-07T10:11:20.347Z,0.80
2018-09-07T10:13:48.982Z,0.60
2018-09-07T10:16:17.258Z,0.87
2018-09-07T10:18:45.509Z,1.00
2018-09-07T10:21:13.785Z,0.70
2018-09-07T10:23:42.010Z,0.80
2018-09-07T10:26:10.233Z,0.70
2018-09-07T10:28:38.423Z,0.67
2018-09-07T10:31:06.677Z,0.60
2018-09-07T10:33:34.956Z,0.63
2018-09-07T10:36:03.193Z,0.80
2018-09-07T10:38:31.432Z,0.67
2018-09-07T10:40:59.665Z,0.53
2018-09-07T10:43:27.921Z,0.80
2018-09-07T10:45:56.127Z,0.97
2018-09-07T10:48:24.324Z,0.77
2018-09-07T10:50:52.571Z,0.70
2018-09-07T10:53:20.818Z,1.90
2018-09-07T10:55:49.080Z,0.70
2018-09-07T10:58:17.409Z,0.80
2018-09-07T11:00:45.681Z,0.70
2018-09-07T11:03:13.903Z,0.80
2018-09-07T11:05:42.142Z,0.90
2018-09-07T11:08:10.359Z,0.77
2018-09-07T11:10:38.589Z,0.63
2018-09-07T11:13:06.886Z,0.70
2018-09-07T11:15:35.194Z,0.90
2018-09-07T11:18:03.470Z,0.93
2018-09-07T11:20:32.170Z,0.50
2018-09-07T11:23:00.441Z,0.80
2018-09-07T11:25:28.718Z,0.70
2018-09-07T11:27:56.926Z,0.83
2018-09-07T11:30:25.149Z,0.70
2018-09-07T11:32:53.501Z,0.70
2018-09-07T11:35:21.853Z,0.70
2018-09-07T11:37:50.050Z,0.70
2018-09-07T11:40:18.295Z,0.83
2018-09-07T11:42:46.483Z,0.80
2018-09-07T11:45:14.766Z,0.73
2018-09-07T11:47:43.022Z,0.60
2018-09-07T11:50:11.329Z,0.90
2018-09-07T11:52:39.610Z,0.70
2018-09-07T11:55:07.870Z,0.93
2018-09-07T11:57:36.106Z,0.90
2018-09-07T12:00:04.434Z,0.80
2018-09-07T12:02:32.731Z,0.50
2018-09-07T12:05:00.966Z,0.70
2018-09-07T12:07:29.201Z,0.70
2018-09-07T12:09:57.493Z,0.70
2018-09-07T12:12:25.816Z,1.10
2018-09-07T12:14:54.028Z,0.50
2018-09-07T12:17:22.327Z,0.70
2018-09-07T12:19:50.541Z,0.90
2018-09-07T12:22:18.905Z,1.03
2018-09-07T12:24:47.264Z,1.07
2018-09-07T12:27:15.478Z,0.57
2018-09-07T12:29:43.693Z,0.77
2018-09-07T12:32:12.802Z,0.63
2018-09-07T12:34:41.077Z,0.70
2018-09-07T12:37:09.408Z,0.80
2018-09-07T12:39:37.877Z,0.70
2018-09-07T12:42:06.286Z,0.60
2018-09-07T12:44:34.470Z,0.80
2018-09-07T12:47:03.510Z,0.83
2018-09-07T12:49:31.753Z,0.80
2018-09-07T12:52:00.013Z,0.70
2018-09-07T12:54:28.297Z,0.77
2018-09-07T12:56:56.517Z,1.00
2018-09-07T12:59:24.812Z,0.70
2018-09-07T13:01:53.059Z,0.67
2018-09-07T13:04:21.346Z,0.80
2018-09-07T13:06:49.630Z,0.97
2018-09-07T13:09:17.869Z,0.60
2018-09-07T13:11:46.146Z,0.70
2018-09-07T13:14:14.369Z,0.80
2018-09-07T13:16:43.511Z,1.00
2018-09-07T13:19:11.941Z,0.73
2018-09-07T13:21:40.174Z,0.83
2018-09-07T13:24:08.352Z,0.80
2018-09-07T13:26:36.607Z,0.60
2018-09-07T13:29:05.030Z,0.80
2018-09-07T13:31:33.283Z,0.80
2018-09-07T13:34:01.483Z,0.57
2018-09-07T13:36:30.008Z,0.90
2018-09-07T13:38:58.254Z,0.77
2018-09-07T13:41:26.614Z,0.90
2018-09-07T13:43:55.013Z,0.90
2018-09-07T13:46:23.290Z,0.87
2018-09-07T13:48:51.502Z,0.80
2018-09-07T13:51:19.830Z,0.80
2018-09-07T13:53:48.069Z,0.80
2018-09-07T13:56:16.389Z,0.83
2018-09-07T13:58:44.578Z,0.80
2018-09-07T14:01:12.835Z,0.83
2018-09-07T14:03:41.107Z,0.70
2018-09-07T14:06:09.314Z,0.90
2018-09-07T14:08:37.761Z,0.80
2018-09-07T14:11:06.049Z,0.50
2018-09-07T14:13:34.297Z,0.60
2018-09-07T14:16:02.624Z,0.90
2018-09-07T14:18:30.878Z,0.70
2018-09-07T14:20:59.152Z,1.07
2018-09-07T14:23:27.353Z,0.70
2018-09-07T14:25:56.541Z,0.70
2018-09-07T14:28:25.441Z,1.13
2018-09-07T14:30:53.690Z,1.10
2018-09-07T14:33:21.989Z,0.60
2018-09-07T14:35:50.288Z,0.63
2018-09-07T14:38:18.521Z,0.63
2018-09-07T14:40:46.746Z,0.70
2018-09-07T14:43:14.965Z,0.83
2018-09-07T14:45:43.295Z,0.77
2018-09-07T14:48:11.598Z,0.60
2018-09-07T14:50:39.921Z,0.60
2018-09-07T14:53:08.206Z,0.80
2018-09-07T14:55:36.473Z,0.70
2018-09-07T14:58:05.650Z,0.70
2018-09-07T15:00:33.881Z,0.63
2018-09-07T15:03:02.122Z,0.80
2018-09-07T15:05:30.359Z,1.00
2018-09-07T15:07:58.589Z,0.73
2018-09-07T15:10:26.968Z,0.80
2018-09-07T15:12:55.173Z,0.80
2018-09-07T15:15:23.430Z,0.97
2018-09-07T15:17:51.737Z,0.90
2018-09-07T15:20:19.949Z,1.63
2018-09-07T15:22:48.322Z,1.00
2018-09-07T15:25:16.575Z,1.40
2018-09-07T15:27:44.790Z,2.00
2018-09-07T15:30:13.074Z,0.97
2018-09-07T15:32:41.350Z,0.80
2018-09-07T15:35:09.578Z,1.10
2018-09-07T15:37:37.831Z,1.10
2018-09-07T15:40:06.058Z,1.10
2018-09-07T15:42:34.414Z,0.90
2018-09-07T15:45:02.598Z,1.10
2018-09-07T15:47:30.978Z,1.17
2018-09-07T15:49:59.234Z,1.30
2018-09-07T15:52:27.455Z,0.90
2018-09-07T15:54:55.739Z,1.10
2018-09-07T15:57:23.951Z,1.53
2018-09-07T15:59:52.166Z,1.00
2018-09-07T16:02:20.438Z,0.80
2018-09-07T16:04:48.709Z,1.00
2018-09-07T16:07:16.910Z,1.00
2018-09-07T16:09:45.204Z,1.00
2018-09-07T16:12:13.506Z,0.90
2018-09-07T16:14:41.713Z,0.97
2018-09-07T16:17:09.985Z,1.03
2018-09-07T16:19:38.182Z,1.30
2018-09-07T16:22:06.441Z,1.40
2018-09-07T16:24:34.710Z,1.10
2018-09-07T16:27:02.913Z,1.47
2018-09-07T16:29:31.165Z,1.13
2018-09-07T16:31:59.528Z,1.10
2018-09-07T16:34:27.742Z,1.60
2018-09-07T16:36:56.014Z,1.43
2018-09-07T16:39:24.238Z,1.27
2018-09-07T16:41:52.466Z,1.20
2018-09-07T16:44:20.701Z,1.20
2018-09-07T16:46:48.961Z,1.30
2018-09-07T16:49:17.210Z,1.40
2018-09-07T16:51:45.477Z,1.50
2018-09-07T16:54:13.734Z,1.20
2018-09-07T16:56:41.940Z,1.20
2018-09-07T16:59:10.294Z,1.27
2018-09-07T17:01:38.513Z,1.40
2018-09-07T17:04:06.709Z,1.50
2018-09-07T17:06:34.956Z,1.60
2018-09-07T17:09:04.325Z,1.45
2018-09-07T17:11:32.561Z,1.80
2018-09-07T17:14:00.770Z,1.63
2018-09-07T17:16:29.061Z,1.35
2018-09-07T17:18:57.373Z,1.70
2018-09-07T17:21:25.778Z,1.60
2018-09-07T17:23:54.008Z,1.40
2018-09-07T17:26:22.246Z,1.80
2018-09-07T17:28:50.525Z,1.35
2018-09-07T17:31:18.805Z,1.30
2018-09-07T17:33:47.039Z,1.52
2018-09-07T17:36:15.406Z,1.85
2018-09-07T17:38:43.628Z,1.50
2018-09-07T17:41:11.891Z,1.40
2018-09-07T17:43:40.166Z,1.42
2018-09-07T17:46:08.369Z,1.60
2018-09-07T17:48:36.609Z,1.20
2018-09-07T17:51:04.850Z,1.45
2018-09-07T17:53:33.102Z,1.30
2018-09-07T17:56:01.310Z,1.55
2018-09-07T17:58:29.536Z,1.37
2018-09-07T18:00:57.810Z,1.47
2018-09-07T18:03:26.002Z,1.80
2018-09-07T18:05:58.613Z,1.80
2018-09-07T18:08:26.902Z,1.85
2018-09-07T18:10:55.181Z,1.30
2018-09-07T18:13:23.905Z,1.30
2018-09-07T18:15:52.220Z,1.27
2018-09-07T18:18:21.255Z,0.95
2018-09-07T18:20:49.453Z,1.20
2018-09-07T18:23:17.737Z,1.32
2018-09-07T18:25:45.937Z,1.57
2018-09-07T18:28:14.157Z,1.50
2018-09-07T18:30:42.469Z,1.10
2018-09-07T18:33:10.689Z,1.30
2018-09-07T18:35:39.136Z,1.10
2018-09-07T18:38:07.165Z,1.27
2018-09-07T18:40:35.383Z,1.20
2018-09-07T18:43:03.610Z,1.27
2018-09-07T18:45:31.810Z,1.35
2018-09-07T18:48:00.041Z,1.20
2018-09-07T18:50:28.338Z,1.32
2018-09-07T18:52:56.610Z,1.80
2018-09-07T18:55:24.870Z,1.40
2018-09-07T18:57:53.175Z,1.40
2018-09-07T19:00:22.921Z,1.67
2018-09-07T19:02:51.153Z,1.70
2018-09-07T19:05:19.427Z,1.25
2018-09-07T19:07:47.676Z,1.47
2018-09-07T19:10:16.026Z,1.25
2018-09-07T19:12:44.366Z,1.47
2018-09-07T19:15:12.581Z,1.42
2018-09-07T19:17:40.865Z,1.90
2018-09-07T19:20:09.137Z,1.45
2018-09-07T19:22:37.348Z,1.50
2018-09-07T19:25:05.677Z,1.63
2018-09-07T19:27:33.922Z,1.93
2018-09-07T19:30:02.151Z,1.55
2018-09-07T19:32:30.363Z,1.65
2018-09-07T19:34:58.758Z,1.55
2018-09-07T19:37:27.006Z,1.40
2018-09-07T19:39:55.210Z,1.45
2018-09-07T19:42:23.822Z,1.35
2018-09-07T19:44:52.049Z,1.42
2018-09-07T19:47:20.265Z,1.53
2018-09-07T19:49:48.490Z,1.37
2018-09-07T19:52:16.786Z,1.75
2018-09-07T19:54:45.018Z,2.25
2018-09-07T19:57:13.214Z,1.80
2018-09-07T19:59:41.413Z,1.42
2018-09-07T20:02:09.633Z,2.08
2018-09-07T20:04:38.054Z,1.13
2018-09-07T20:07:06.303Z,2.67
2018-09-07T20:09:34.602Z,1.60
2018-09-07T20:12:02.901Z,1.50
2018-09-07T20:14:31.167Z,1.87
2018-09-07T20:16:59.389Z,2.00
2018-09-07T20:19:27.625Z,2.00
2018-09-07T20:21:55.923Z,2.20
2018-09-07T20:24:24.325Z,2.30
2018-09-07T20:26:52.645Z,2.30
2018-09-07T20:29:20.916Z,2.67
2018-09-07T20:31:49.150Z,2.50
2018-09-07T20:34:17.382Z,3.00
2018-09-07T20:36:45.597Z,2.10
2018-09-07T20:39:13.829Z,2.20
2018-09-07T20:41:42.041Z,1.90
2018-09-07T20:44:10.331Z,2.20
2018-09-07T20:46:38.543Z,2.40
2018-09-07T20:49:06.854Z,2.67
2018-09-07T20:51:35.097Z,3.95
2018-09-07T20:54:03.310Z,3.20
2018-09-07T20:56:31.587Z,2.50
2018-09-07T20:58:59.855Z,2.47
2018-09-07T21:01:28.337Z,2.60
2018-09-07T21:03:56.630Z,2.65
2018-09-07T21:06:24.835Z,5.00
2018-09-07T21:08:53.141Z,4.65
2018-09-07T21:11:21.454Z,2.87
2018-09-07T21:13:49.731Z,2.60
2018-09-07T21:16:17.925Z,3.00
2018-09-07T21:18:46.242Z,2.42
2018-09-07T21:21:14.443Z,2.90
2018-09-07T21:23:42.681Z,2.98
2018-09-07T21:26:10.903Z,2.80
2018-09-07T21:28:39.098Z,3.33
2018-09-07T21:31:07.318Z,3.20
2018-09-07T21:33:35.570Z,3.10
2018-09-07T21:36:03.799Z,3.72
2018-09-07T21:38:32.080Z,3.85
2018-09-07T21:41:02.929Z,2.95
2018-09-07T21:43:31.158Z,2.98
2018-09-07T21:45:59.386Z,2.98
2018-09-07T21:48:27.585Z,2.92
2018-09-07T21:50:55.833Z,2.92
2018-09-07T21:53:24.069Z,3.20
2018-09-07T21:55:52.608Z,3.67
2018-09-07T21:58:20.819Z,2.35
2018-09-07T22:00:49.074Z,3.20
2018-09-07T22:03:17.305Z,3.02
2018-09-07T22:05:45.545Z,3.00
2018-09-07T22:08:13.852Z,3.17
2018-09-07T22:10:42.050Z,2.85
2018-09-07T22:13:10.283Z,3.77
2018-09-07T22:15:38.550Z,3.05
2018-09-07T22:18:06.794Z,3.00
2018-09-07T22:20:35.092Z,2.60
2018-09-07T22:23:03.333Z,3.27
2018-09-07T22:25:31.572Z,3.22
2018-09-07T22:27:59.881Z,3.50
2018-09-07T22:30:28.073Z,3.00
2018-09-07T22:32:56.337Z,3.47
2018-09-07T22:35:24.525Z,3.75
2018-09-07T22:37:52.753Z,3.77
2018-09-07T22:40:21.015Z,3.25
2018-09-07T22:42:49.209Z,3.55
2018-09-07T22:45:17.423Z,3.00
2018-09-07T22:47:45.690Z,3.30
2018-09-07T22:50:13.969Z,3.42
2018-09-07T22:52:42.221Z,3.45
2018-09-07T22:55:10.440Z,3.20
2018-09-07T22:57:38.697Z,3.60
2018-09-07T23:00:06.994Z,3.65
2018-09-07T23:02:35.221Z,3.20
2018-09-07T23:05:03.578Z,3.85
2018-09-07T23:07:31.794Z,3.98
2018-09-07T23:10:00.033Z,3.50
2018-09-07T23:12:28.344Z,2.90
2018-09-07T23:14:56.594Z,2.90
2018-09-07T23:17:24.789Z,4.30
2018-09-07T23:19:53.185Z,3.98
2018-09-07T23:22:21.458Z,3.17
2018-09-07T23:24:49.673Z,3.30
2018-09-07T23:27:17.917Z,3.72
2018-09-07T23:29:46.144Z,3.40
2018-09-07T23:32:14.547Z,2.90
2018-09-07T23:34:42.737Z,3.08
2018-09-07T23:37:10.946Z,3.33
2018-09-07T23:39:39.147Z,3.30
2018-09-07T23:42:07.430Z,3.58
2018-09-07T23:44:35.641Z,3.75
2018-09-07T23:47:03.870Z,3.15
2018-09-07T23:49:32.093Z,4.30
2018-09-07T23:52:00.346Z,3.75
2018-09-07T23:54:28.647Z,3.60
2018-09-07T23:56:56.922Z,3.33
2018-09-07T23:59:25.218Z,2.58
